sensor_id;sensor_type;location;lat;lon;timestamp;P1;durP1;ratioP1;P2;durP2;ratioP2
60239;SDS011;46102;39.012;-7.064;2023-05-07T00:00:39;10.23;;;2.90;;
60239;SDS011;46102;39.012;-7.064;2023-05-07T00:02:40;11.45;;;2.90;;
60239;SDS011;46102;39.012;-7.064;2023-05-07T00:04:41;7.07;;;2.70;;
60239;SDS011;46102;39.012;-7.064;2023-05-07T00:06:42;9.82;;;2.63;;
60239;SDS011;46102;39.012;-7.064;2023-05-07T00:08:43;13.35;;;3.50;;
60239;SDS011;46102;39.012;-7.064;2023-05-07T00:10:43;5.80;;;2.30;;
60239;SDS011;46102;39.012;-7.064;2023-05-07T00:12:45;13.15;;;4.22;;
60239;SDS011;46102;39.012;-7.064;2023-05-07T00:14:45;11.18;;;2.88;;
60239;SDS011;46102;39.012;-7.064;2023-05-07T00:16:46;11.60;;;3.42;;
60239;SDS011;46102;39.012;-7.064;2023-05-07T00:18:47;13.88;;;4.43;;
60239;SDS011;46102;39.012;-7.064;2023-05-07T00:20:48;9.48;;;3.33;;
60239;SDS011;46102;39.012;-7.064;2023-05-07T00:22:49;7.55;;;2.35;;
60239;SDS011;46102;39.012;-7.064;2023-05-07T00:24:49;8.07;;;2.63;;
60239;SDS011;46102;39.012;-7.064;2023-05-07T00:26:50;9.75;;;4.13;;
60239;SDS011;46102;39.012;-7.064;2023-05-07T00:28:52;19.25;;;3.25;;
60239;SDS011;46102;39.012;-7.064;2023-05-07T00:30:53;10.05;;;2.65;;
60239;SDS011;46102;39.012;-7.064;2023-05-07T00:32:54;9.30;;;2.95;;
60239;SDS011;46102;39.012;-7.064;2023-05-07T00:34:55;8.40;;;3.60;;
60239;SDS011;46102;39.012;-7.064;2023-05-07T00:36:56;6.65;;;2.47;;
60239;SDS011;46102;39.012;-7.064;2023-05-07T00:38:57;7.75;;;2.45;;
60239;SDS011;46102;39.012;-7.064;2023-05-07T00:41:00;13.13;;;2.97;;
60239;SDS011;46102;39.012;-7.064;2023-05-07T00:43:02;11.60;;;3.03;;
60239;SDS011;46102;39.012;-7.064;2023-05-07T00:45:03;9.88;;;2.92;;
60239;SDS011;46102;39.012;-7.064;2023-05-07T00:47:05;11.85;;;3.80;;
60239;SDS011;46102;39.012;-7.064;2023-05-07T00:49:06;9.43;;;2.70;;
60239;SDS011;46102;39.012;-7.064;2023-05-07T00:51:07;8.27;;;2.30;;
60239;SDS011;46102;39.012;-7.064;2023-05-07T00:53:09;12.48;;;3.00;;
60239;SDS011;46102;39.012;-7.064;2023-05-07T00:55:10;7.53;;;2.83;;
60239;SDS011;46102;39.012;-7.064;2023-05-07T00:57:13;9.40;;;2.58;;
60239;SDS011;46102;39.012;-7.064;2023-05-07T00:59:15;9.80;;;3.15;;
60239;SDS011;46102;39.012;-7.064;2023-05-07T01:01:16;10.80;;;3.03;;
60239;SDS011;46102;39.012;-7.064;2023-05-07T01:03:17;11.85;;;2.67;;
60239;SDS011;46102;39.012;-7.064;2023-05-07T01:05:18;16.20;;;3.03;;
60239;SDS011;46102;39.012;-7.064;2023-05-07T01:07:20;14.43;;;2.75;;
60239;SDS011;46102;39.012;-7.064;2023-05-07T01:09:22;11.77;;;2.92;;
60239;SDS011;46102;39.012;-7.064;2023-05-07T01:11:24;11.93;;;2.72;;
60239;SDS011;46102;39.012;-7.064;2023-05-07T01:13:26;6.57;;;2.63;;
60239;SDS011;46102;39.012;-7.064;2023-05-07T01:15:27;7.45;;;2.60;;
60239;SDS011;46102;39.012;-7.064;2023-05-07T01:17:33;10.75;;;3.90;;
60239;SDS011;46102;39.012;-7.064;2023-05-07T01:19:35;16.42;;;5.18;;
60239;SDS011;46102;39.012;-7.064;2023-05-07T01:21:36;16.40;;;5.40;;
60239;SDS011;46102;39.012;-7.064;2023-05-07T01:23:39;16.35;;;6.55;;
60239;SDS011;46102;39.012;-7.064;2023-05-07T01:25:41;15.85;;;7.13;;
60239;SDS011;46102;39.012;-7.064;2023-05-07T01:27:43;18.10;;;7.47;;
60239;SDS011;46102;39.012;-7.064;2023-05-07T01:29:44;22.58;;;8.50;;
60239;SDS011;46102;39.012;-7.064;2023-05-07T01:31:45;23.02;;;8.15;;
60239;SDS011;46102;39.012;-7.064;2023-05-07T01:33:48;19.67;;;7.72;;
60239;SDS011;46102;39.012;-7.064;2023-05-07T01:35:51;24.02;;;8.02;;
60239;SDS011;46102;39.012;-7.064;2023-05-07T01:37:53;14.13;;;5.38;;
60239;SDS011;46102;39.012;-7.064;2023-05-07T01:39:55;13.27;;;5.13;;
60239;SDS011;46102;39.012;-7.064;2023-05-07T01:41:56;15.35;;;5.05;;
60239;SDS011;46102;39.012;-7.064;2023-05-07T01:43:58;15.27;;;4.32;;
60239;SDS011;46102;39.012;-7.064;2023-05-07T01:46:00;11.77;;;4.22;;
60239;SDS011;46102;39.012;-7.064;2023-05-07T01:48:03;12.85;;;3.60;;
60239;SDS011;46102;39.012;-7.064;2023-05-07T01:50:06;16.58;;;4.07;;
60239;SDS011;46102;39.012;-7.064;2023-05-07T01:52:10;9.10;;;4.20;;
60239;SDS011;46102;39.012;-7.064;2023-05-07T01:54:12;10.98;;;4.00;;
60239;SDS011;46102;39.012;-7.064;2023-05-07T01:56:13;15.18;;;4.57;;
60239;SDS011;46102;39.012;-7.064;2023-05-07T01:58:16;10.35;;;4.53;;
60239;SDS011;46102;39.012;-7.064;2023-05-07T02:00:17;5.82;;;3.13;;
60239;SDS011;46102;39.012;-7.064;2023-05-07T02:02:19;12.32;;;3.95;;
60239;SDS011;46102;39.012;-7.064;2023-05-07T02:04:20;8.60;;;3.40;;
60239;SDS011;46102;39.012;-7.064;2023-05-07T02:06:21;12.68;;;4.60;;
60239;SDS011;46102;39.012;-7.064;2023-05-07T02:08:22;12.77;;;4.00;;
60239;SDS011;46102;39.012;-7.064;2023-05-07T02:10:23;18.08;;;4.28;;
60239;SDS011;46102;39.012;-7.064;2023-05-07T02:12:24;20.80;;;4.60;;
60239;SDS011;46102;39.012;-7.064;2023-05-07T02:14:24;11.05;;;5.03;;
60239;SDS011;46102;39.012;-7.064;2023-05-07T02:16:26;14.43;;;5.55;;
60239;SDS011;46102;39.012;-7.064;2023-05-07T02:18:27;13.82;;;5.40;;
60239;SDS011;46102;39.012;-7.064;2023-05-07T02:20:28;19.35;;;5.57;;
60239;SDS011;46102;39.012;-7.064;2023-05-07T02:22:29;10.57;;;4.78;;
60239;SDS011;46102;39.012;-7.064;2023-05-07T02:24:30;16.00;;;5.70;;
60239;SDS011;46102;39.012;-7.064;2023-05-07T02:26:31;15.25;;;5.55;;
60239;SDS011;46102;39.012;-7.064;2023-05-07T02:28:32;12.90;;;5.28;;
60239;SDS011;46102;39.012;-7.064;2023-05-07T02:30:38;14.65;;;5.25;;
60239;SDS011;46102;39.012;-7.064;2023-05-07T02:32:39;15.43;;;4.95;;
60239;SDS011;46102;39.012;-7.064;2023-05-07T02:34:41;11.55;;;5.03;;
60239;SDS011;46102;39.012;-7.064;2023-05-07T02:36:42;14.65;;;5.07;;
60239;SDS011;46102;39.012;-7.064;2023-05-07T02:38:46;12.27;;;4.20;;
60239;SDS011;46102;39.012;-7.064;2023-05-07T02:40:47;17.73;;;4.80;;
60239;SDS011;46102;39.012;-7.064;2023-05-07T02:42:47;12.30;;;4.18;;
60239;SDS011;46102;39.012;-7.064;2023-05-07T02:44:49;14.30;;;4.68;;
60239;SDS011;46102;39.012;-7.064;2023-05-07T02:46:50;12.18;;;4.03;;
60239;SDS011;46102;39.012;-7.064;2023-05-07T02:48:51;11.52;;;4.05;;
60239;SDS011;46102;39.012;-7.064;2023-05-07T02:50:52;9.35;;;3.80;;
60239;SDS011;46102;39.012;-7.064;2023-05-07T02:52:52;14.35;;;4.53;;
60239;SDS011;46102;39.012;-7.064;2023-05-07T02:54:53;11.85;;;4.40;;
60239;SDS011;46102;39.012;-7.064;2023-05-07T02:56:54;13.95;;;4.07;;
60239;SDS011;46102;39.012;-7.064;2023-05-07T02:58:55;15.00;;;4.53;;
60239;SDS011;46102;39.012;-7.064;2023-05-07T03:01:00;14.15;;;4.47;;
60239;SDS011;46102;39.012;-7.064;2023-05-07T03:03:06;15.48;;;4.10;;
60239;SDS011;46102;39.012;-7.064;2023-05-07T03:05:07;9.65;;;3.63;;
60239;SDS011;46102;39.012;-7.064;2023-05-07T03:07:08;16.50;;;3.80;;
60239;SDS011;46102;39.012;-7.064;2023-05-07T03:09:09;16.42;;;4.65;;
60239;SDS011;46102;39.012;-7.064;2023-05-07T03:11:10;10.82;;;4.05;;
60239;SDS011;46102;39.012;-7.064;2023-05-07T03:13:11;18.83;;;5.35;;
60239;SDS011;46102;39.012;-7.064;2023-05-07T03:15:12;11.75;;;4.18;;
60239;SDS011;46102;39.012;-7.064;2023-05-07T03:17:13;12.00;;;4.18;;
60239;SDS011;46102;39.012;-7.064;2023-05-07T03:19:14;23.95;;;6.78;;
60239;SDS011;46102;39.012;-7.064;2023-05-07T03:21:15;7.40;;;4.57;;
60239;SDS011;46102;39.012;-7.064;2023-05-07T03:23:16;21.77;;;5.07;;
60239;SDS011;46102;39.012;-7.064;2023-05-07T03:25:17;12.10;;;4.38;;
60239;SDS011;46102;39.012;-7.064;2023-05-07T03:27:17;20.02;;;5.70;;
60239;SDS011;46102;39.012;-7.064;2023-05-07T03:29:19;19.42;;;4.75;;
60239;SDS011;46102;39.012;-7.064;2023-05-07T03:31:20;11.23;;;4.63;;
60239;SDS011;46102;39.012;-7.064;2023-05-07T03:33:21;20.88;;;5.60;;
60239;SDS011;46102;39.012;-7.064;2023-05-07T03:35:22;14.43;;;4.30;;
60239;SDS011;46102;39.012;-7.064;2023-05-07T03:37:23;9.15;;;4.03;;
60239;SDS011;46102;39.012;-7.064;2023-05-07T03:39:24;13.07;;;4.22;;
60239;SDS011;46102;39.012;-7.064;2023-05-07T03:41:25;11.98;;;4.10;;
60239;SDS011;46102;39.012;-7.064;2023-05-07T03:43:26;9.93;;;4.07;;
60239;SDS011;46102;39.012;-7.064;2023-05-07T03:45:35;16.00;;;4.05;;
60239;SDS011;46102;39.012;-7.064;2023-05-07T03:47:44;12.27;;;4.80;;
60239;SDS011;46102;39.012;-7.064;2023-05-07T03:49:49;14.18;;;5.15;;
60239;SDS011;46102;39.012;-7.064;2023-05-07T03:51:53;12.82;;;4.07;;
60239;SDS011;46102;39.012;-7.064;2023-05-07T03:53:54;16.23;;;6.40;;
60239;SDS011;46102;39.012;-7.064;2023-05-07T03:55:58;15.32;;;4.78;;
60239;SDS011;46102;39.012;-7.064;2023-05-07T03:57:59;12.95;;;4.68;;
60239;SDS011;46102;39.012;-7.064;2023-05-07T04:00:01;16.25;;;4.65;;
60239;SDS011;46102;39.012;-7.064;2023-05-07T04:02:09;12.98;;;4.82;;
60239;SDS011;46102;39.012;-7.064;2023-05-07T04:04:10;24.55;;;6.13;;
60239;SDS011;46102;39.012;-7.064;2023-05-07T04:06:11;12.88;;;5.07;;
60239;SDS011;46102;39.012;-7.064;2023-05-07T04:08:13;20.30;;;6.40;;
60239;SDS011;46102;39.012;-7.064;2023-05-07T04:10:18;19.73;;;5.82;;
60239;SDS011;46102;39.012;-7.064;2023-05-07T04:12:21;18.88;;;6.93;;
60239;SDS011;46102;39.012;-7.064;2023-05-07T04:14:22;16.08;;;7.20;;
60239;SDS011;46102;39.012;-7.064;2023-05-07T04:16:23;21.85;;;7.95;;
60239;SDS011;46102;39.012;-7.064;2023-05-07T04:18:24;20.00;;;6.88;;
60239;SDS011;46102;39.012;-7.064;2023-05-07T04:20:25;13.38;;;6.43;;
60239;SDS011;46102;39.012;-7.064;2023-05-07T04:22:33;20.67;;;7.43;;
60239;SDS011;46102;39.012;-7.064;2023-05-07T04:24:33;20.08;;;6.90;;
60239;SDS011;46102;39.012;-7.064;2023-05-07T04:26:35;19.73;;;6.13;;
60239;SDS011;46102;39.012;-7.064;2023-05-07T04:28:36;21.60;;;6.30;;
60239;SDS011;46102;39.012;-7.064;2023-05-07T04:30:37;23.55;;;7.03;;
60239;SDS011;46102;39.012;-7.064;2023-05-07T04:32:40;17.48;;;6.28;;
60239;SDS011;46102;39.012;-7.064;2023-05-07T04:34:41;15.35;;;7.00;;
60239;SDS011;46102;39.012;-7.064;2023-05-07T04:36:42;17.10;;;7.10;;
60239;SDS011;46102;39.012;-7.064;2023-05-07T04:38:45;21.25;;;6.32;;
60239;SDS011;46102;39.012;-7.064;2023-05-07T04:40:46;23.25;;;6.15;;
60239;SDS011;46102;39.012;-7.064;2023-05-07T04:42:51;18.13;;;6.18;;
60239;SDS011;46102;39.012;-7.064;2023-05-07T04:44:53;17.75;;;6.75;;
60239;SDS011;46102;39.012;-7.064;2023-05-07T04:46:56;20.33;;;7.05;;
60239;SDS011;46102;39.012;-7.064;2023-05-07T04:48:58;17.77;;;5.80;;
60239;SDS011;46102;39.012;-7.064;2023-05-07T04:50:58;14.73;;;5.75;;
60239;SDS011;46102;39.012;-7.064;2023-05-07T04:52:59;13.98;;;5.30;;
60239;SDS011;46102;39.012;-7.064;2023-05-07T04:55:00;14.75;;;5.20;;
60239;SDS011;46102;39.012;-7.064;2023-05-07T04:57:06;18.00;;;5.40;;
60239;SDS011;46102;39.012;-7.064;2023-05-07T04:59:08;20.75;;;6.97;;
60239;SDS011;46102;39.012;-7.064;2023-05-07T05:01:08;14.32;;;6.43;;
60239;SDS011;46102;39.012;-7.064;2023-05-07T05:03:11;15.23;;;6.28;;
60239;SDS011;46102;39.012;-7.064;2023-05-07T05:05:13;18.33;;;5.95;;
60239;SDS011;46102;39.012;-7.064;2023-05-07T05:07:15;13.60;;;5.82;;
60239;SDS011;46102;39.012;-7.064;2023-05-07T05:09:16;21.80;;;5.82;;
60239;SDS011;46102;39.012;-7.064;2023-05-07T05:11:16;15.10;;;6.05;;
60239;SDS011;46102;39.012;-7.064;2023-05-07T05:13:17;17.02;;;6.78;;
60239;SDS011;46102;39.012;-7.064;2023-05-07T05:15:18;21.20;;;6.65;;
60239;SDS011;46102;39.012;-7.064;2023-05-07T05:17:19;21.17;;;7.60;;
60239;SDS011;46102;39.012;-7.064;2023-05-07T05:19:20;18.83;;;7.72;;
60239;SDS011;46102;39.012;-7.064;2023-05-07T05:21:21;17.20;;;6.75;;
60239;SDS011;46102;39.012;-7.064;2023-05-07T05:23:25;24.17;;;8.13;;
60239;SDS011;46102;39.012;-7.064;2023-05-07T05:25:27;37.22;;;10.98;;
60239;SDS011;46102;39.012;-7.064;2023-05-07T05:27:29;22.95;;;7.82;;
60239;SDS011;46102;39.012;-7.064;2023-05-07T05:29:30;16.17;;;6.72;;
60239;SDS011;46102;39.012;-7.064;2023-05-07T05:31:32;19.92;;;6.90;;
60239;SDS011;46102;39.012;-7.064;2023-05-07T05:33:34;14.88;;;6.22;;
60239;SDS011;46102;39.012;-7.064;2023-05-07T05:35:38;19.08;;;5.90;;
60239;SDS011;46102;39.012;-7.064;2023-05-07T05:37:44;15.45;;;5.93;;
60239;SDS011;46102;39.012;-7.064;2023-05-07T05:39:46;12.55;;;4.75;;
60239;SDS011;46102;39.012;-7.064;2023-05-07T05:41:50;14.77;;;5.15;;
60239;SDS011;46102;39.012;-7.064;2023-05-07T05:43:51;14.85;;;4.63;;
60239;SDS011;46102;39.012;-7.064;2023-05-07T05:45:54;13.65;;;4.75;;
60239;SDS011;46102;39.012;-7.064;2023-05-07T05:47:56;10.82;;;4.00;;
60239;SDS011;46102;39.012;-7.064;2023-05-07T05:49:57;10.27;;;3.63;;
60239;SDS011;46102;39.012;-7.064;2023-05-07T05:52:01;11.95;;;4.03;;
60239;SDS011;46102;39.012;-7.064;2023-05-07T05:54:03;9.98;;;3.25;;
60239;SDS011;46102;39.012;-7.064;2023-05-07T05:56:06;16.55;;;3.40;;
60239;SDS011;46102;39.012;-7.064;2023-05-07T05:58:08;10.18;;;3.50;;
60239;SDS011;46102;39.012;-7.064;2023-05-07T06:00:13;9.85;;;3.30;;
60239;SDS011;46102;39.012;-7.064;2023-05-07T06:02:19;9.13;;;3.88;;
60239;SDS011;46102;39.012;-7.064;2023-05-07T06:04:20;14.82;;;3.40;;
60239;SDS011;46102;39.012;-7.064;2023-05-07T06:06:21;9.90;;;4.35;;
60239;SDS011;46102;39.012;-7.064;2023-05-07T06:08:22;13.18;;;4.25;;
60239;SDS011;46102;39.012;-7.064;2023-05-07T06:10:24;11.82;;;3.63;;
60239;SDS011;46102;39.012;-7.064;2023-05-07T06:12:26;14.23;;;3.33;;
60239;SDS011;46102;39.012;-7.064;2023-05-07T06:14:26;16.63;;;4.13;;
60239;SDS011;46102;39.012;-7.064;2023-05-07T06:16:29;11.75;;;4.70;;
60239;SDS011;46102;39.012;-7.064;2023-05-07T06:18:31;11.27;;;2.97;;
60239;SDS011;46102;39.012;-7.064;2023-05-07T06:20:32;7.90;;;3.10;;
60239;SDS011;46102;39.012;-7.064;2023-05-07T06:22:35;9.32;;;3.40;;
60239;SDS011;46102;39.012;-7.064;2023-05-07T06:24:37;15.85;;;3.75;;
60239;SDS011;46102;39.012;-7.064;2023-05-07T06:26:40;8.65;;;3.15;;
60239;SDS011;46102;39.012;-7.064;2023-05-07T06:28:40;7.00;;;3.08;;
60239;SDS011;46102;39.012;-7.064;2023-05-07T06:30:45;3.67;;;2.92;;
60239;SDS011;46102;39.012;-7.064;2023-05-07T06:32:46;9.32;;;3.03;;
60239;SDS011;46102;39.012;-7.064;2023-05-07T06:34:48;10.50;;;3.10;;
60239;SDS011;46102;39.012;-7.064;2023-05-07T06:36:49;13.25;;;3.65;;
60239;SDS011;46102;39.012;-7.064;2023-05-07T06:39:03;7.93;;;2.72;;
60239;SDS011;46102;39.012;-7.064;2023-05-07T06:41:05;8.10;;;2.67;;
60239;SDS011;46102;39.012;-7.064;2023-05-07T06:43:06;9.90;;;2.80;;
60239;SDS011;46102;39.012;-7.064;2023-05-07T06:45:16;6.13;;;3.15;;
60239;SDS011;46102;39.012;-7.064;2023-05-07T06:47:17;13.80;;;3.78;;
60239;SDS011;46102;39.012;-7.064;2023-05-07T06:49:22;3.85;;;2.30;;
60239;SDS011;46102;39.012;-7.064;2023-05-07T06:51:23;11.07;;;3.15;;
60239;SDS011;46102;39.012;-7.064;2023-05-07T06:53:24;8.55;;;2.55;;
60239;SDS011;46102;39.012;-7.064;2023-05-07T06:55:27;4.05;;;2.28;;
60239;SDS011;46102;39.012;-7.064;2023-05-07T06:57:29;4.65;;;2.15;;
60239;SDS011;46102;39.012;-7.064;2023-05-07T06:59:30;7.68;;;2.40;;
60239;SDS011;46102;39.012;-7.064;2023-05-07T07:01:31;5.40;;;2.63;;
60239;SDS011;46102;39.012;-7.064;2023-05-07T07:03:32;9.77;;;2.83;;
60239;SDS011;46102;39.012;-7.064;2023-05-07T07:05:33;5.60;;;2.42;;
60239;SDS011;46102;39.012;-7.064;2023-05-07T07:07:36;8.00;;;3.13;;
60239;SDS011;46102;39.012;-7.064;2023-05-07T07:09:37;9.20;;;2.35;;
60239;SDS011;46102;39.012;-7.064;2023-05-07T07:11:39;5.82;;;3.60;;
60239;SDS011;46102;39.012;-7.064;2023-05-07T07:13:41;7.25;;;2.85;;
60239;SDS011;46102;39.012;-7.064;2023-05-07T07:15:43;10.02;;;3.20;;
60239;SDS011;46102;39.012;-7.064;2023-05-07T07:17:44;5.78;;;2.45;;
60239;SDS011;46102;39.012;-7.064;2023-05-07T07:19:44;6.30;;;2.83;;
60239;SDS011;46102;39.012;-7.064;2023-05-07T07:21:45;5.55;;;3.95;;
60239;SDS011;46102;39.012;-7.064;2023-05-07T07:23:47;6.47;;;3.53;;
60239;SDS011;46102;39.012;-7.064;2023-05-07T07:25:48;9.00;;;3.47;;
60239;SDS011;46102;39.012;-7.064;2023-05-07T07:27:49;10.80;;;3.58;;
60239;SDS011;46102;39.012;-7.064;2023-05-07T07:29:51;9.02;;;2.90;;
60239;SDS011;46102;39.012;-7.064;2023-05-07T07:31:52;14.60;;;3.30;;
60239;SDS011;46102;39.012;-7.064;2023-05-07T07:33:54;4.10;;;3.22;;
60239;SDS011;46102;39.012;-7.064;2023-05-07T07:35:55;12.38;;;4.43;;
60239;SDS011;46102;39.012;-7.064;2023-05-07T07:37:56;8.52;;;3.72;;
60239;SDS011;46102;39.012;-7.064;2023-05-07T07:39:57;3.67;;;3.15;;
60239;SDS011;46102;39.012;-7.064;2023-05-07T07:41:58;5.90;;;4.05;;
60239;SDS011;46102;39.012;-7.064;2023-05-07T07:44:00;8.95;;;5.05;;
60239;SDS011;46102;39.012;-7.064;2023-05-07T07:46:04;4.43;;;4.03;;
60239;SDS011;46102;39.012;-7.064;2023-05-07T07:48:06;6.82;;;3.75;;
60239;SDS011;46102;39.012;-7.064;2023-05-07T07:50:10;5.47;;;3.33;;
60239;SDS011;46102;39.012;-7.064;2023-05-07T07:52:11;5.63;;;3.85;;
60239;SDS011;46102;39.012;-7.064;2023-05-07T07:54:13;5.85;;;3.65;;
60239;SDS011;46102;39.012;-7.064;2023-05-07T07:56:14;6.63;;;3.40;;
60239;SDS011;46102;39.012;-7.064;2023-05-07T07:58:16;4.60;;;3.08;;
60239;SDS011;46102;39.012;-7.064;2023-05-07T08:00:17;6.35;;;2.83;;
60239;SDS011;46102;39.012;-7.064;2023-05-07T08:02:17;5.03;;;3.90;;
60239;SDS011;46102;39.012;-7.064;2023-05-07T08:04:19;6.45;;;3.17;;
60239;SDS011;46102;39.012;-7.064;2023-05-07T08:06:20;5.63;;;3.10;;
60239;SDS011;46102;39.012;-7.064;2023-05-07T08:08:21;4.97;;;3.33;;
60239;SDS011;46102;39.012;-7.064;2023-05-07T08:10:23;7.07;;;4.13;;
60239;SDS011;46102;39.012;-7.064;2023-05-07T08:12:29;9.50;;;3.10;;
60239;SDS011;46102;39.012;-7.064;2023-05-07T08:14:30;8.85;;;3.47;;
60239;SDS011;46102;39.012;-7.064;2023-05-07T08:16:31;5.60;;;3.97;;
60239;SDS011;46102;39.012;-7.064;2023-05-07T08:18:33;8.10;;;2.70;;
60239;SDS011;46102;39.012;-7.064;2023-05-07T08:20:36;6.93;;;2.83;;
60239;SDS011;46102;39.012;-7.064;2023-05-07T08:22:41;4.40;;;2.83;;
60239;SDS011;46102;39.012;-7.064;2023-05-07T08:24:42;3.88;;;2.53;;
60239;SDS011;46102;39.012;-7.064;2023-05-07T08:26:43;6.95;;;3.33;;
60239;SDS011;46102;39.012;-7.064;2023-05-07T08:28:45;6.25;;;3.30;;
60239;SDS011;46102;39.012;-7.064;2023-05-07T08:30:46;5.15;;;2.40;;
60239;SDS011;46102;39.012;-7.064;2023-05-07T08:32:47;3.90;;;2.80;;
60239;SDS011;46102;39.012;-7.064;2023-05-07T08:34:48;2.92;;;2.08;;
60239;SDS011;46102;39.012;-7.064;2023-05-07T08:36:49;5.20;;;3.05;;
60239;SDS011;46102;39.012;-7.064;2023-05-07T08:38:53;3.60;;;2.30;;
60239;SDS011;46102;39.012;-7.064;2023-05-07T08:40:55;6.20;;;2.63;;
60239;SDS011;46102;39.012;-7.064;2023-05-07T08:42:56;8.25;;;3.00;;
60239;SDS011;46102;39.012;-7.064;2023-05-07T08:44:58;4.93;;;2.60;;
60239;SDS011;46102;39.012;-7.064;2023-05-07T08:47:01;4.75;;;2.70;;
60239;SDS011;46102;39.012;-7.064;2023-05-07T08:49:04;7.70;;;2.63;;
60239;SDS011;46102;39.012;-7.064;2023-05-07T08:51:05;5.47;;;2.50;;
60239;SDS011;46102;39.012;-7.064;2023-05-07T08:53:06;3.75;;;2.35;;
60239;SDS011;46102;39.012;-7.064;2023-05-07T08:55:08;4.85;;;2.50;;
60239;SDS011;46102;39.012;-7.064;2023-05-07T08:57:09;3.72;;;1.88;;
60239;SDS011;46102;39.012;-7.064;2023-05-07T08:59:10;5.10;;;2.38;;
60239;SDS011;46102;39.012;-7.064;2023-05-07T09:01:16;5.13;;;2.47;;
60239;SDS011;46102;39.012;-7.064;2023-05-07T09:03:20;5.78;;;2.47;;
60239;SDS011;46102;39.012;-7.064;2023-05-07T09:05:24;6.50;;;2.55;;
60239;SDS011;46102;39.012;-7.064;2023-05-07T09:07:25;3.55;;;2.63;;
60239;SDS011;46102;39.012;-7.064;2023-05-07T09:09:27;3.97;;;2.30;;
60239;SDS011;46102;39.012;-7.064;2023-05-07T09:11:28;4.57;;;2.22;;
60239;SDS011;46102;39.012;-7.064;2023-05-07T09:13:33;5.28;;;2.15;;
60239;SDS011;46102;39.012;-7.064;2023-05-07T09:15:36;6.90;;;2.90;;
60239;SDS011;46102;39.012;-7.064;2023-05-07T09:17:37;6.32;;;2.25;;
60239;SDS011;46102;39.012;-7.064;2023-05-07T09:19:38;4.95;;;2.33;;
60239;SDS011;46102;39.012;-7.064;2023-05-07T09:21:41;7.25;;;2.88;;
60239;SDS011;46102;39.012;-7.064;2023-05-07T09:23:44;4.90;;;2.22;;
60239;SDS011;46102;39.012;-7.064;2023-05-07T09:25:45;7.45;;;2.15;;
60239;SDS011;46102;39.012;-7.064;2023-05-07T09:27:53;4.75;;;2.42;;
60239;SDS011;46102;39.012;-7.064;2023-05-07T09:29:53;4.22;;;1.92;;
60239;SDS011;46102;39.012;-7.064;2023-05-07T09:31:54;5.05;;;2.50;;
60239;SDS011;46102;39.012;-7.064;2023-05-07T09:33:58;3.08;;;2.30;;
60239;SDS011;46102;39.012;-7.064;2023-05-07T09:36:05;4.07;;;2.33;;
60239;SDS011;46102;39.012;-7.064;2023-05-07T09:38:07;4.53;;;2.20;;
60239;SDS011;46102;39.012;-7.064;2023-05-07T09:40:20;3.28;;;2.10;;
60239;SDS011;46102;39.012;-7.064;2023-05-07T09:42:24;4.18;;;2.28;;
60239;SDS011;46102;39.012;-7.064;2023-05-07T09:44:28;3.72;;;2.30;;
60239;SDS011;46102;39.012;-7.064;2023-05-07T09:46:29;6.32;;;2.53;;
60239;SDS011;46102;39.012;-7.064;2023-05-07T09:48:37;6.13;;;2.60;;
60239;SDS011;46102;39.012;-7.064;2023-05-07T09:50:44;5.00;;;2.30;;
60239;SDS011;46102;39.012;-7.064;2023-05-07T09:52:51;4.68;;;2.35;;
60239;SDS011;46102;39.012;-7.064;2023-05-07T09:54:53;6.15;;;2.70;;
60239;SDS011;46102;39.012;-7.064;2023-05-07T09:56:59;5.95;;;2.90;;
60239;SDS011;46102;39.012;-7.064;2023-05-07T09:59:04;8.88;;;3.33;;
60239;SDS011;46102;39.012;-7.064;2023-05-07T10:01:07;4.57;;;2.87;;
60239;SDS011;46102;39.012;-7.064;2023-05-07T10:03:10;7.53;;;3.30;;
60239;SDS011;46102;39.012;-7.064;2023-05-07T10:05:28;4.90;;;3.30;;
60239;SDS011;46102;39.012;-7.064;2023-05-07T10:07:32;6.43;;;3.35;;
60239;SDS011;46102;39.012;-7.064;2023-05-07T10:09:39;4.40;;;3.30;;
60239;SDS011;46102;39.012;-7.064;2023-05-07T10:11:48;4.28;;;3.20;;
60239;SDS011;46102;39.012;-7.064;2023-05-07T10:13:50;5.25;;;2.33;;
60239;SDS011;46102;39.012;-7.064;2023-05-07T10:15:52;4.95;;;3.30;;
60239;SDS011;46102;39.012;-7.064;2023-05-07T10:17:56;2.67;;;2.35;;
60239;SDS011;46102;39.012;-7.064;2023-05-07T10:19:58;3.35;;;1.88;;
60239;SDS011;46102;39.012;-7.064;2023-05-07T10:22:01;4.63;;;2.17;;
60239;SDS011;46102;39.012;-7.064;2023-05-07T10:26:11;5.13;;;2.30;;
60239;SDS011;46102;39.012;-7.064;2023-05-07T10:28:13;4.43;;;2.38;;
60239;SDS011;46102;39.012;-7.064;2023-05-07T10:32:39;5.30;;;3.40;;
60239;SDS011;46102;39.012;-7.064;2023-05-07T10:34:48;4.68;;;2.60;;
60239;SDS011;46102;39.012;-7.064;2023-05-07T10:36:51;4.03;;;3.40;;
60239;SDS011;46102;39.012;-7.064;2023-05-07T10:38:57;5.60;;;2.27;;
60239;SDS011;46102;39.012;-7.064;2023-05-07T10:40:59;2.13;;;1.88;;
60239;SDS011;46102;39.012;-7.064;2023-05-07T10:43:00;3.25;;;1.40;;
60239;SDS011;46102;39.012;-7.064;2023-05-07T10:45:13;2.63;;;1.42;;
60239;SDS011;46102;39.012;-7.064;2023-05-07T10:47:17;3.90;;;2.22;;
60239;SDS011;46102;39.012;-7.064;2023-05-07T10:49:22;3.08;;;1.85;;
60239;SDS011;46102;39.012;-7.064;2023-05-07T10:51:28;3.00;;;1.70;;
60239;SDS011;46102;39.012;-7.064;2023-05-07T10:53:39;3.38;;;1.75;;
60239;SDS011;46102;39.012;-7.064;2023-05-07T10:55:48;1.45;;;1.25;;
60239;SDS011;46102;39.012;-7.064;2023-05-07T10:57:54;2.67;;;1.40;;
60239;SDS011;46102;39.012;-7.064;2023-05-07T11:03:15;3.78;;;2.28;;
60239;SDS011;46102;39.012;-7.064;2023-05-07T11:07:42;2.67;;;1.55;;
60239;SDS011;46102;39.012;-7.064;2023-05-07T11:09:56;4.78;;;1.65;;
60239;SDS011;46102;39.012;-7.064;2023-05-07T11:16:43;3.05;;;1.95;;
60239;SDS011;46102;39.012;-7.064;2023-05-07T11:18:55;4.30;;;1.80;;
60239;SDS011;46102;39.012;-7.064;2023-05-07T11:21:06;3.67;;;2.72;;
60239;SDS011;46102;39.012;-7.064;2023-05-07T11:26:05;4.90;;;1.85;;
60239;SDS011;46102;39.012;-7.064;2023-05-07T11:28:07;2.90;;;1.80;;
60239;SDS011;46102;39.012;-7.064;2023-05-07T11:30:17;1.95;;;1.35;;
60239;SDS011;46102;39.012;-7.064;2023-05-07T11:32:22;3.30;;;1.60;;
60239;SDS011;46102;39.012;-7.064;2023-05-07T11:34:26;2.95;;;1.42;;
60239;SDS011;46102;39.012;-7.064;2023-05-07T11:36:31;6.67;;;1.97;;
60239;SDS011;46102;39.012;-7.064;2023-05-07T11:38:36;2.22;;;1.73;;
60239;SDS011;46102;39.012;-7.064;2023-05-07T11:40:48;5.45;;;1.60;;
60239;SDS011;46102;39.012;-7.064;2023-05-07T11:42:53;3.92;;;1.55;;
60239;SDS011;46102;39.012;-7.064;2023-05-07T11:44:53;3.30;;;1.58;;
60239;SDS011;46102;39.012;-7.064;2023-05-07T11:46:54;3.17;;;2.13;;
60239;SDS011;46102;39.012;-7.064;2023-05-07T11:48:55;4.53;;;1.95;;
60239;SDS011;46102;39.012;-7.064;2023-05-07T11:51:00;3.92;;;1.67;;
60239;SDS011;46102;39.012;-7.064;2023-05-07T11:53:08;2.58;;;1.60;;
60239;SDS011;46102;39.012;-7.064;2023-05-07T11:55:09;2.75;;;1.20;;
60239;SDS011;46102;39.012;-7.064;2023-05-07T11:57:14;2.38;;;1.65;;
60239;SDS011;46102;39.012;-7.064;2023-05-07T11:59:18;3.53;;;1.73;;
60239;SDS011;46102;39.012;-7.064;2023-05-07T12:01:19;3.88;;;1.55;;
60239;SDS011;46102;39.012;-7.064;2023-05-07T12:03:20;8.65;;;1.40;;
60239;SDS011;46102;39.012;-7.064;2023-05-07T12:05:21;3.50;;;1.30;;
60239;SDS011;46102;39.012;-7.064;2023-05-07T12:07:23;5.35;;;1.92;;
60239;SDS011;46102;39.012;-7.064;2023-05-07T12:09:24;3.05;;;1.98;;
60239;SDS011;46102;39.012;-7.064;2023-05-07T12:11:26;3.00;;;1.85;;
60239;SDS011;46102;39.012;-7.064;2023-05-07T12:13:26;2.13;;;1.20;;
60239;SDS011;46102;39.012;-7.064;2023-05-07T12:15:27;2.20;;;1.25;;
60239;SDS011;46102;39.012;-7.064;2023-05-07T12:17:28;1.92;;;1.17;;
60239;SDS011;46102;39.012;-7.064;2023-05-07T12:19:29;3.35;;;1.58;;